sensor_id;sensor_type;location;lat;lon;timestamp;P1;durP1;ratioP1;P2;durP2;ratioP2
52708;SDS011;38606;52.986;6.980;2023-08-06T00:00:21;10.73;;;8.20;;
52708;SDS011;38606;52.986;6.980;2023-08-06T00:02:48;13.15;;;8.90;;
52708;SDS011;38606;52.986;6.980;2023-08-06T00:05:14;11.38;;;8.52;;
52708;SDS011;38606;52.986;6.980;2023-08-06T00:07:49;13.43;;;9.40;;
52708;SDS011;38606;52.986;6.980;2023-08-06T00:10:15;10.48;;;9.23;;
52708;SDS011;38606;52.986;6.980;2023-08-06T00:12:41;9.98;;;8.55;;
52708;SDS011;38606;52.986;6.980;2023-08-06T00:15:08;12.18;;;8.52;;
52708;SDS011;38606;52.986;6.980;2023-08-06T00:17:34;10.82;;;8.55;;
52708;SDS011;38606;52.986;6.980;2023-08-06T00:20:04;9.32;;;7.90;;
52708;SDS011;38606;52.986;6.980;2023-08-06T00:22:35;9.43;;;7.85;;
52708;SDS011;38606;52.986;6.980;2023-08-06T00:25:03;14.02;;;8.75;;
52708;SDS011;38606;52.986;6.980;2023-08-06T00:27:29;12.38;;;8.60;;
52708;SDS011;38606;52.986;6.980;2023-08-06T00:29:55;11.57;;;9.02;;
52708;SDS011;38606;52.986;6.980;2023-08-06T00:32:21;12.93;;;9.48;;
52708;SDS011;38606;52.986;6.980;2023-08-06T00:34:47;9.45;;;8.27;;
52708;SDS011;38606;52.986;6.980;2023-08-06T00:37:16;14.82;;;8.32;;
52708;SDS011;38606;52.986;6.980;2023-08-06T00:39:42;11.65;;;8.30;;
52708;SDS011;38606;52.986;6.980;2023-08-06T00:42:08;10.65;;;8.80;;
52708;SDS011;38606;52.986;6.980;2023-08-06T00:44:34;10.88;;;8.65;;
52708;SDS011;38606;52.986;6.980;2023-08-06T00:47:00;13.93;;;8.50;;
52708;SDS011;38606;52.986;6.980;2023-08-06T00:49:27;10.70;;;8.82;;
52708;SDS011;38606;52.986;6.980;2023-08-06T00:51:53;14.48;;;8.90;;
52708;SDS011;38606;52.986;6.980;2023-08-06T00:54:19;10.40;;;8.30;;
52708;SDS011;38606;52.986;6.980;2023-08-06T00:56:45;14.75;;;9.57;;
52708;SDS011;38606;52.986;6.980;2023-08-06T00:59:12;12.32;;;9.52;;
52708;SDS011;38606;52.986;6.980;2023-08-06T01:01:38;14.20;;;8.93;;
52708;SDS011;38606;52.986;6.980;2023-08-06T01:04:03;10.15;;;8.27;;
52708;SDS011;38606;52.986;6.980;2023-08-06T01:06:35;11.65;;;9.05;;
52708;SDS011;38606;52.986;6.980;2023-08-06T01:12:05;11.48;;;9.90;;
52708;SDS011;38606;52.986;6.980;2023-08-06T01:15:04;11.80;;;8.80;;
52708;SDS011;38606;52.986;6.980;2023-08-06T01:17:38;13.23;;;9.32;;
52708;SDS011;38606;52.986;6.980;2023-08-06T01:20:04;14.18;;;8.73;;
52708;SDS011;38606;52.986;6.980;2023-08-06T01:22:30;10.77;;;8.73;;
52708;SDS011;38606;52.986;6.980;2023-08-06T01:24:56;11.77;;;8.88;;
52708;SDS011;38606;52.986;6.980;2023-08-06T01:27:33;12.00;;;9.15;;
52708;SDS011;38606;52.986;6.980;2023-08-06T01:30:22;10.15;;;8.80;;
52708;SDS011;38606;52.986;6.980;2023-08-06T01:32:55;10.65;;;9.55;;
52708;SDS011;38606;52.986;6.980;2023-08-06T01:35:25;10.90;;;8.82;;
52708;SDS011;38606;52.986;6.980;2023-08-06T01:37:52;11.98;;;8.40;;
52708;SDS011;38606;52.986;6.980;2023-08-06T01:40:19;9.52;;;8.20;;
52708;SDS011;38606;52.986;6.980;2023-08-06T01:42:45;10.60;;;8.73;;
52708;SDS011;38606;52.986;6.980;2023-08-06T01:45:11;10.98;;;8.57;;
52708;SDS011;38606;52.986;6.980;2023-08-06T01:47:36;12.30;;;8.27;;
52708;SDS011;38606;52.986;6.980;2023-08-06T01:50:02;12.45;;;8.98;;
52708;SDS011;38606;52.986;6.980;2023-08-06T01:52:28;11.50;;;9.25;;
52708;SDS011;38606;52.986;6.980;2023-08-06T01:54:54;12.02;;;9.10;;
52708;SDS011;38606;52.986;6.980;2023-08-06T01:57:21;10.45;;;8.35;;
52708;SDS011;38606;52.986;6.980;2023-08-06T01:59:46;12.60;;;8.90;;
52708;SDS011;38606;52.986;6.980;2023-08-06T02:02:12;15.13;;;8.57;;
52708;SDS011;38606;52.986;6.980;2023-08-06T02:04:38;12.32;;;9.15;;
52708;SDS011;38606;52.986;6.980;2023-08-06T02:07:04;10.50;;;8.32;;
52708;SDS011;38606;52.986;6.980;2023-08-06T02:09:29;10.07;;;8.60;;
52708;SDS011;38606;52.986;6.980;2023-08-06T02:11:55;11.13;;;8.75;;
52708;SDS011;38606;52.986;6.980;2023-08-06T02:14:21;11.50;;;7.93;;
52708;SDS011;38606;52.986;6.980;2023-08-06T02:16:46;13.30;;;8.88;;
52708;SDS011;38606;52.986;6.980;2023-08-06T02:19:12;10.77;;;7.93;;
52708;SDS011;38606;52.986;6.980;2023-08-06T02:21:38;9.23;;;8.23;;
52708;SDS011;38606;52.986;6.980;2023-08-06T02:24:04;9.45;;;8.18;;
52708;SDS011;38606;52.986;6.980;2023-08-06T02:26:29;10.13;;;8.10;;
52708;SDS011;38606;52.986;6.980;2023-08-06T02:28:55;9.93;;;7.95;;
52708;SDS011;38606;52.986;6.980;2023-08-06T02:31:21;10.63;;;8.27;;
52708;SDS011;38606;52.986;6.980;2023-08-06T02:33:46;12.90;;;9.38;;
52708;SDS011;38606;52.986;6.980;2023-08-06T02:36:12;11.93;;;8.70;;
52708;SDS011;38606;52.986;6.980;2023-08-06T02:38:38;10.93;;;8.95;;
52708;SDS011;38606;52.986;6.980;2023-08-06T02:41:04;11.43;;;9.00;;
52708;SDS011;38606;52.986;6.980;2023-08-06T02:43:30;12.95;;;8.45;;
52708;SDS011;38606;52.986;6.980;2023-08-06T02:45:59;10.50;;;8.38;;
52708;SDS011;38606;52.986;6.980;2023-08-06T02:48:25;13.10;;;8.60;;
52708;SDS011;38606;52.986;6.980;2023-08-06T02:50:51;9.43;;;8.45;;
52708;SDS011;38606;52.986;6.980;2023-08-06T02:53:17;15.15;;;8.93;;
52708;SDS011;38606;52.986;6.980;2023-08-06T02:55:46;10.23;;;8.55;;
52708;SDS011;38606;52.986;6.980;2023-08-06T02:58:13;12.80;;;8.80;;
52708;SDS011;38606;52.986;6.980;2023-08-06T03:00:39;12.63;;;9.70;;
52708;SDS011;38606;52.986;6.980;2023-08-06T03:03:05;14.65;;;9.85;;
52708;SDS011;38606;52.986;6.980;2023-08-06T03:05:30;13.05;;;9.95;;
52708;SDS011;38606;52.986;6.980;2023-08-06T03:07:56;9.98;;;8.80;;
52708;SDS011;38606;52.986;6.980;2023-08-06T03:10:22;12.38;;;9.88;;
52708;SDS011;38606;52.986;6.980;2023-08-06T03:12:47;11.15;;;9.05;;
52708;SDS011;38606;52.986;6.980;2023-08-06T03:15:13;10.50;;;9.35;;
52708;SDS011;38606;52.986;6.980;2023-08-06T03:17:38;11.43;;;9.25;;
52708;SDS011;38606;52.986;6.980;2023-08-06T03:20:05;12.88;;;10.25;;
52708;SDS011;38606;52.986;6.980;2023-08-06T03:22:31;12.77;;;10.38;;
52708;SDS011;38606;52.986;6.980;2023-08-06T03:24:57;13.52;;;9.98;;
52708;SDS011;38606;52.986;6.980;2023-08-06T03:27:23;13.93;;;10.48;;
52708;SDS011;38606;52.986;6.980;2023-08-06T03:29:49;11.55;;;9.95;;
52708;SDS011;38606;52.986;6.980;2023-08-06T03:32:17;11.23;;;10.02;;
52708;SDS011;38606;52.986;6.980;2023-08-06T03:34:43;12.98;;;10.27;;
52708;SDS011;38606;52.986;6.980;2023-08-06T03:37:09;12.98;;;10.55;;
52708;SDS011;38606;52.986;6.980;2023-08-06T03:39:35;13.88;;;10.25;;
52708;SDS011;38606;52.986;6.980;2023-08-06T03:42:00;14.30;;;10.65;;
52708;SDS011;38606;52.986;6.980;2023-08-06T03:44:26;13.70;;;11.60;;
52708;SDS011;38606;52.986;6.980;2023-08-06T03:46:53;16.58;;;12.77;;
52708;SDS011;38606;52.986;6.980;2023-08-06T03:49:19;13.10;;;11.68;;
52708;SDS011;38606;52.986;6.980;2023-08-06T03:51:44;17.05;;;11.75;;
52708;SDS011;38606;52.986;6.980;2023-08-06T03:54:11;15.02;;;11.52;;
52708;SDS011;38606;52.986;6.980;2023-08-06T03:56:36;19.67;;;12.93;;
52708;SDS011;38606;52.986;6.980;2023-08-06T03:59:02;13.50;;;12.05;;
52708;SDS011;38606;52.986;6.980;2023-08-06T04:01:28;12.77;;;11.38;;
52708;SDS011;38606;52.986;6.980;2023-08-06T04:03:53;15.10;;;12.15;;
52708;SDS011;38606;52.986;6.980;2023-08-06T04:06:19;13.68;;;12.05;;
52708;SDS011;38606;52.986;6.980;2023-08-06T04:08:44;14.00;;;12.35;;
52708;SDS011;38606;52.986;6.980;2023-08-06T04:11:10;15.18;;;12.88;;
52708;SDS011;38606;52.986;6.980;2023-08-06T04:13:37;13.75;;;11.52;;
52708;SDS011;38606;52.986;6.980;2023-08-06T04:16:03;19.33;;;11.48;;
52708;SDS011;38606;52.986;6.980;2023-08-06T04:18:29;15.57;;;11.32;;
52708;SDS011;38606;52.986;6.980;2023-08-06T04:20:55;13.00;;;11.15;;
52708;SDS011;38606;52.986;6.980;2023-08-06T04:23:22;13.45;;;11.13;;
52708;SDS011;38606;52.986;6.980;2023-08-06T04:25:48;15.18;;;11.02;;
52708;SDS011;38606;52.986;6.980;2023-08-06T04:28:14;14.65;;;10.70;;
52708;SDS011;38606;52.986;6.980;2023-08-06T04:30:39;16.52;;;10.75;;
52708;SDS011;38606;52.986;6.980;2023-08-06T04:33:05;11.82;;;9.90;;
52708;SDS011;38606;52.986;6.980;2023-08-06T04:35:31;12.23;;;10.73;;
52708;SDS011;38606;52.986;6.980;2023-08-06T04:37:56;12.57;;;11.00;;
52708;SDS011;38606;52.986;6.980;2023-08-06T04:40:22;12.25;;;10.18;;
52708;SDS011;38606;52.986;6.980;2023-08-06T04:42:48;12.65;;;10.52;;
52708;SDS011;38606;52.986;6.980;2023-08-06T04:45:14;13.38;;;10.35;;
52708;SDS011;38606;52.986;6.980;2023-08-06T04:47:39;14.60;;;10.98;;
52708;SDS011;38606;52.986;6.980;2023-08-06T04:50:05;11.63;;;10.43;;
52708;SDS011;38606;52.986;6.980;2023-08-06T04:52:31;14.13;;;10.63;;
52708;SDS011;38606;52.986;6.980;2023-08-06T04:54:57;12.55;;;10.18;;
52708;SDS011;38606;52.986;6.980;2023-08-06T04:57:23;13.15;;;10.40;;
52708;SDS011;38606;52.986;6.980;2023-08-06T04:59:49;12.23;;;10.20;;
52708;SDS011;38606;52.986;6.980;2023-08-06T05:02:15;11.68;;;10.30;;
52708;SDS011;38606;52.986;6.980;2023-08-06T05:04:40;14.35;;;10.40;;
52708;SDS011;38606;52.986;6.980;2023-08-06T05:07:06;15.25;;;10.23;;
52708;SDS011;38606;52.986;6.980;2023-08-06T05:09:32;12.63;;;10.30;;
52708;SDS011;38606;52.986;6.980;2023-08-06T05:12:00;14.05;;;10.73;;
52708;SDS011;38606;52.986;6.980;2023-08-06T05:14:26;16.45;;;11.35;;
52708;SDS011;38606;52.986;6.980;2023-08-06T05:16:51;9.82;;;8.82;;
52708;SDS011;38606;52.986;6.980;2023-08-06T05:19:17;14.25;;;10.52;;
52708;SDS011;38606;52.986;6.980;2023-08-06T05:21:43;15.57;;;9.70;;
52708;SDS011;38606;52.986;6.980;2023-08-06T05:24:08;13.57;;;9.30;;
52708;SDS011;38606;52.986;6.980;2023-08-06T05:26:34;10.18;;;9.18;;
52708;SDS011;38606;52.986;6.980;2023-08-06T05:29:00;10.40;;;8.55;;
52708;SDS011;38606;52.986;6.980;2023-08-06T05:31:26;10.10;;;8.82;;
52708;SDS011;38606;52.986;6.980;2023-08-06T05:33:53;11.80;;;8.40;;
52708;SDS011;38606;52.986;6.980;2023-08-06T05:36:19;11.32;;;8.85;;
52708;SDS011;38606;52.986;6.980;2023-08-06T05:38:46;10.40;;;9.20;;
52708;SDS011;38606;52.986;6.980;2023-08-06T05:41:12;13.13;;;8.35;;
52708;SDS011;38606;52.986;6.980;2023-08-06T05:43:38;10.18;;;8.15;;
52708;SDS011;38606;52.986;6.980;2023-08-06T05:46:03;10.30;;;7.55;;
52708;SDS011;38606;52.986;6.980;2023-08-06T05:48:29;10.80;;;8.80;;
52708;SDS011;38606;52.986;6.980;2023-08-06T05:50:55;8.98;;;8.02;;
52708;SDS011;38606;52.986;6.980;2023-08-06T05:53:20;9.02;;;7.40;;
52708;SDS011;38606;52.986;6.980;2023-08-06T05:55:47;9.30;;;7.55;;
52708;SDS011;38606;52.986;6.980;2023-08-06T05:58:12;10.00;;;8.07;;
52708;SDS011;38606;52.986;6.980;2023-08-06T06:00:38;9.50;;;7.80;;
52708;SDS011;38606;52.986;6.980;2023-08-06T06:03:04;9.25;;;7.70;;
52708;SDS011;38606;52.986;6.980;2023-08-06T06:05:30;11.48;;;7.57;;
52708;SDS011;38606;52.986;6.980;2023-08-06T06:07:55;11.15;;;7.97;;
52708;SDS011;38606;52.986;6.980;2023-08-06T06:10:21;11.98;;;7.72;;
52708;SDS011;38606;52.986;6.980;2023-08-06T06:12:47;14.45;;;7.57;;
52708;SDS011;38606;52.986;6.980;2023-08-06T06:15:12;9.68;;;7.40;;
52708;SDS011;38606;52.986;6.980;2023-08-06T06:17:39;7.93;;;7.13;;
52708;SDS011;38606;52.986;6.980;2023-08-06T06:20:05;6.90;;;6.20;;
52708;SDS011;38606;52.986;6.980;2023-08-06T06:22:31;8.18;;;7.00;;
52708;SDS011;38606;52.986;6.980;2023-08-06T06:24:56;9.57;;;7.13;;
52708;SDS011;38606;52.986;6.980;2023-08-06T06:27:22;12.52;;;7.28;;
52708;SDS011;38606;52.986;6.980;2023-08-06T06:29:48;9.20;;;7.28;;
52708;SDS011;38606;52.986;6.980;2023-08-06T06:32:13;7.53;;;6.82;;
52708;SDS011;38606;52.986;6.980;2023-08-06T06:34:39;9.45;;;7.55;;
52708;SDS011;38606;52.986;6.980;2023-08-06T06:37:05;10.00;;;7.43;;
52708;SDS011;38606;52.986;6.980;2023-08-06T06:39:30;9.00;;;6.90;;
52708;SDS011;38606;52.986;6.980;2023-08-06T06:41:56;7.82;;;7.07;;
52708;SDS011;38606;52.986;6.980;2023-08-06T06:44:22;8.40;;;7.53;;
52708;SDS011;38606;52.986;6.980;2023-08-06T06:46:47;10.55;;;7.25;;
52708;SDS011;38606;52.986;6.980;2023-08-06T06:49:13;9.20;;;7.18;;
52708;SDS011;38606;52.986;6.980;2023-08-06T06:51:39;11.15;;;7.07;;
52708;SDS011;38606;52.986;6.980;2023-08-06T06:54:04;8.50;;;7.63;;
52708;SDS011;38606;52.986;6.980;2023-08-06T06:56:30;10.48;;;7.25;;
52708;SDS011;38606;52.986;6.980;2023-08-06T06:58:56;9.65;;;8.52;;
52708;SDS011;38606;52.986;6.980;2023-08-06T07:01:21;11.82;;;7.88;;
52708;SDS011;38606;52.986;6.980;2023-08-06T07:03:47;11.70;;;8.13;;
52708;SDS011;38606;52.986;6.980;2023-08-06T07:06:13;9.13;;;8.07;;
52708;SDS011;38606;52.986;6.980;2023-08-06T07:08:40;8.57;;;7.55;;
52708;SDS011;38606;52.986;6.980;2023-08-06T07:11:06;8.82;;;7.93;;
52708;SDS011;38606;52.986;6.980;2023-08-06T07:13:33;7.80;;;6.85;;
52708;SDS011;38606;52.986;6.980;2023-08-06T07:15:59;9.10;;;7.72;;
52708;SDS011;38606;52.986;6.980;2023-08-06T07:18:25;8.68;;;7.75;;
52708;SDS011;38606;52.986;6.980;2023-08-06T07:20:51;10.63;;;7.45;;
52708;SDS011;38606;52.986;6.980;2023-08-06T07:23:21;9.10;;;8.25;;
52708;SDS011;38606;52.986;6.980;2023-08-06T07:25:49;9.82;;;7.35;;
52708;SDS011;38606;52.986;6.980;2023-08-06T07:28:15;9.00;;;6.60;;
52708;SDS011;38606;52.986;6.980;2023-08-06T07:30:41;8.10;;;7.40;;
52708;SDS011;38606;52.986;6.980;2023-08-06T07:33:08;7.97;;;7.18;;
52708;SDS011;38606;52.986;6.980;2023-08-06T07:35:34;8.07;;;7.22;;
52708;SDS011;38606;52.986;6.980;2023-08-06T07:37:59;10.90;;;7.82;;
52708;SDS011;38606;52.986;6.980;2023-08-06T07:40:25;9.13;;;7.40;;
52708;SDS011;38606;52.986;6.980;2023-08-06T07:42:51;9.73;;;7.32;;
52708;SDS011;38606;52.986;6.980;2023-08-06T07:45:17;8.40;;;7.20;;
52708;SDS011;38606;52.986;6.980;2023-08-06T07:47:42;9.40;;;7.05;;
52708;SDS011;38606;52.986;6.980;2023-08-06T07:50:08;6.93;;;6.22;;
52708;SDS011;38606;52.986;6.980;2023-08-06T07:52:34;8.10;;;7.05;;
52708;SDS011;38606;52.986;6.980;2023-08-06T07:55:00;7.03;;;6.40;;
52708;SDS011;38606;52.986;6.980;2023-08-06T07:57:30;7.13;;;6.35;;
52708;SDS011;38606;52.986;6.980;2023-08-06T07:59:56;7.90;;;6.40;;
52708;SDS011;38606;52.986;6.980;2023-08-06T08:02:22;7.15;;;6.43;;
52708;SDS011;38606;52.986;6.980;2023-08-06T08:04:47;9.05;;;6.25;;
52708;SDS011;38606;52.986;6.980;2023-08-06T08:07:13;7.20;;;6.30;;
52708;SDS011;38606;52.986;6.980;2023-08-06T08:09:39;6.65;;;5.90;;
52708;SDS011;38606;52.986;6.980;2023-08-06T08:12:05;10.43;;;5.43;;
52708;SDS011;38606;52.986;6.980;2023-08-06T08:14:31;6.75;;;6.05;;
52708;SDS011;38606;52.986;6.980;2023-08-06T08:17:04;6.57;;;5.88;;
52708;SDS011;38606;52.986;6.980;2023-08-06T08:19:33;6.82;;;6.22;;
52708;SDS011;38606;52.986;6.980;2023-08-06T08:21:59;6.90;;;6.20;;
52708;SDS011;38606;52.986;6.980;2023-08-06T08:24:25;7.20;;;5.53;;
52708;SDS011;38606;52.986;6.980;2023-08-06T08:26:54;8.43;;;6.40;;
52708;SDS011;38606;52.986;6.980;2023-08-06T08:29:19;7.53;;;6.05;;
52708;SDS011;38606;52.986;6.980;2023-08-06T08:31:46;6.85;;;6.00;;
52708;SDS011;38606;52.986;6.980;2023-08-06T08:34:14;6.90;;;6.20;;
52708;SDS011;38606;52.986;6.980;2023-08-06T08:36:43;7.00;;;6.30;;
52708;SDS011;38606;52.986;6.980;2023-08-06T08:39:11;7.45;;;5.80;;
52708;SDS011;38606;52.986;6.980;2023-08-06T08:41:37;7.18;;;5.60;;
52708;SDS011;38606;52.986;6.980;2023-08-06T08:44:13;8.77;;;5.38;;
52708;SDS011;38606;52.986;6.980;2023-08-06T08:46:41;6.70;;;6.07;;
52708;SDS011;38606;52.986;6.980;2023-08-06T08:49:09;8.27;;;6.07;;
52708;SDS011;38606;52.986;6.980;2023-08-06T08:51:36;6.97;;;5.93;;
52708;SDS011;38606;52.986;6.980;2023-08-06T08:54:05;6.93;;;6.25;;
52708;SDS011;38606;52.986;6.980;2023-08-06T08:56:33;7.57;;;5.68;;
52708;SDS011;38606;52.986;6.980;2023-08-06T08:58:58;6.90;;;6.10;;
52708;SDS011;38606;52.986;6.980;2023-08-06T09:01:24;7.05;;;5.82;;
52708;SDS011;38606;52.986;6.980;2023-08-06T09:03:51;7.20;;;5.63;;
52708;SDS011;38606;52.986;6.980;2023-08-06T09:06:19;6.68;;;5.97;;
52708;SDS011;38606;52.986;6.980;2023-08-06T09:09:01;6.18;;;5.57;;
52708;SDS011;38606;52.986;6.980;2023-08-06T09:11:34;5.82;;;5.20;;
52708;SDS011;38606;52.986;6.980;2023-08-06T09:14:06;5.78;;;5.10;;
52708;SDS011;38606;52.986;6.980;2023-08-06T09:16:33;5.82;;;4.95;;
52708;SDS011;38606;52.986;6.980;2023-08-06T09:19:12;7.93;;;4.65;;
52708;SDS011;38606;52.986;6.980;2023-08-06T09:21:40;7.63;;;4.93;;
52708;SDS011;38606;52.986;6.980;2023-08-06T09:24:07;8.30;;;4.75;;
52708;SDS011;38606;52.986;6.980;2023-08-06T09:26:34;4.82;;;4.30;;
52708;SDS011;38606;52.986;6.980;2023-08-06T09:29:01;6.13;;;4.22;;
52708;SDS011;38606;52.986;6.980;2023-08-06T09:31:42;5.25;;;4.10;;
52708;SDS011;38606;52.986;6.980;2023-08-06T09:34:19;8.10;;;4.78;;
52708;SDS011;38606;52.986;6.980;2023-08-06T09:36:47;4.93;;;4.53;;
52708;SDS011;38606;52.986;6.980;2023-08-06T09:39:16;6.82;;;4.28;;
52708;SDS011;38606;52.986;6.980;2023-08-06T09:41:43;4.80;;;4.03;;
52708;SDS011;38606;52.986;6.980;2023-08-06T09:44:17;4.47;;;3.83;;
52708;SDS011;38606;52.986;6.980;2023-08-06T09:46:47;5.97;;;4.00;;
52708;SDS011;38606;52.986;6.980;2023-08-06T09:49:25;6.72;;;4.30;;
52708;SDS011;38606;52.986;6.980;2023-08-06T09:52:09;7.32;;;3.65;;
52708;SDS011;38606;52.986;6.980;2023-08-06T09:54:41;3.80;;;3.05;;
52708;SDS011;38606;52.986;6.980;2023-08-06T09:57:08;4.22;;;2.35;;
52708;SDS011;38606;52.986;6.980;2023-08-06T09:59:37;3.28;;;2.53;;
52708;SDS011;38606;52.986;6.980;2023-08-06T10:02:06;2.78;;;2.13;;
52708;SDS011;38606;52.986;6.980;2023-08-06T10:04:38;3.28;;;2.00;;
52708;SDS011;38606;52.986;6.980;2023-08-06T10:07:04;2.42;;;2.00;;
52708;SDS011;38606;52.986;6.980;2023-08-06T10:09:30;3.42;;;1.90;;
52708;SDS011;38606;52.986;6.980;2023-08-06T10:11:56;2.60;;;1.80;;
52708;SDS011;38606;52.986;6.980;2023-08-06T10:14:25;5.18;;;1.60;;
52708;SDS011;38606;52.986;6.980;2023-08-06T10:16:54;4.35;;;1.40;;
52708;SDS011;38606;52.986;6.980;2023-08-06T10:19:23;1.90;;;1.67;;
52708;SDS011;38606;52.986;6.980;2023-08-06T10:29:55;3.38;;;1.42;;
52708;SDS011;38606;52.986;6.980;2023-08-06T10:32:29;3.17;;;1.30;;
52708;SDS011;38606;52.986;6.980;2023-08-06T10:38:19;1.45;;;1.35;;
52708;SDS011;38606;52.986;6.980;2023-08-06T10:43:28;2.70;;;1.33;;
52708;SDS011;38606;52.986;6.980;2023-08-06T10:45:55;2.60;;;1.30;;
52708;SDS011;38606;52.986;6.980;2023-08-06T10:48:33;2.25;;;1.40;;
52708;SDS011;38606;52.986;6.980;2023-08-06T10:51:09;1.70;;;1.60;;
52708;SDS011;38606;52.986;6.980;2023-08-06T10:53:36;2.53;;;1.48;;
52708;SDS011;38606;52.986;6.980;2023-08-06T10:56:15;1.55;;;1.23;;
52708;SDS011;38606;52.986;6.980;2023-08-06T10:58:42;2.55;;;1.35;;
52708;SDS011;38606;52.986;6.980;2023-08-06T11:01:10;2.85;;;1.50;;
52708;SDS011;38606;52.986;6.980;2023-08-06T11:03:36;1.50;;;1.30;;
52708;SDS011;38606;52.986;6.980;2023-08-06T11:06:03;2.08;;;1.45;;
52708;SDS011;38606;52.986;6.980;2023-08-06T11:08:33;1.65;;;1.42;;
52708;SDS011;38606;52.986;6.980;2023-08-06T11:11:10;1.90;;;1.40;;
52708;SDS011;38606;52.986;6.980;2023-08-06T11:13:40;1.35;;;1.25;;
52708;SDS011;38606;52.986;6.980;2023-08-06T11:16:07;1.55;;;1.33;;
52708;SDS011;38606;52.986;6.980;2023-08-06T11:18:33;1.83;;;1.50;;
52708;SDS011;38606;52.986;6.980;2023-08-06T11:20:59;1.98;;;1.40;;
52708;SDS011;38606;52.986;6.980;2023-08-06T11:23:26;1.60;;;1.20;;
52708;SDS011;38606;52.986;6.980;2023-08-06T11:25:53;2.80;;;1.40;;
52708;SDS011;38606;52.986;6.980;2023-08-06T11:28:20;3.38;;;1.50;;
52708;SDS011;38606;52.986;6.980;2023-08-06T11:30:49;3.33;;;1.33;;
52708;SDS011;38606;52.986;6.980;2023-08-06T11:33:19;3.42;;;1.80;;
52708;SDS011;38606;52.986;6.980;2023-08-06T11:35:50;2.33;;;1.30;;
52708;SDS011;38606;52.986;6.980;2023-08-06T11:38:17;1.40;;;1.30;;
52708;SDS011;38606;52.986;6.980;2023-08-06T11:40:46;1.40;;;1.30;;
52708;SDS011;38606;52.986;6.980;2023-08-06T11:43:13;1.90;;;1.38;;
52708;SDS011;38606;52.986;6.980;2023-08-06T11:45:39;1.50;;;1.30;;
52708;SDS011;38606;52.986;6.980;2023-08-06T11:48:06;1.67;;;1.17;;
52708;SDS011;38606;52.986;6.980;2023-08-06T11:50:36;2.30;;;1.40;;
52708;SDS011;38606;52.986;6.980;2023-08-06T11:53:03;1.42;;;1.20;;
52708;SDS011;38606;52.986;6.980;2023-08-06T11:55:30;1.45;;;1.13;;
52708;SDS011;38606;52.986;6.980;2023-08-06T11:57:56;3.15;;;1.38;;
52708;SDS011;38606;52.986;6.980;2023-08-06T12:00:23;1.85;;;1.40;;
52708;SDS011;38606;52.986;6.980;2023-08-06T12:02:50;1.60;;;1.20;;
52708;SDS011;38606;52.986;6.980;2023-08-06T12:05:20;1.88;;;1.27;;
52708;SDS011;38606;52.986;6.980;2023-08-06T12:07:52;1.30;;;1.20;;
52708;SDS011;38606;52.986;6.980;2023-08-06T12:10:20;2.72;;;1.38;;
52708;SDS011;38606;52.986;6.980;2023-08-06T12:12:47;2.55;;;1.38;;
52708;SDS011;38606;52.986;6.980;2023-08-06T12:15:13;1.83;;;1.42;;
52708;SDS011;38606;52.986;6.980;2023-08-06T12:17:39;1.40;;;1.23;;
52708;SDS011;38606;52.986;6.980;2023-08-06T12:20:05;2.00;;;1.30;;
52708;SDS011;38606;52.986;6.980;2023-08-06T12:22:32;3.30;;;1.40;;
52708;SDS011;38606;52.986;6.980;2023-08-06T12:25:03;2.45;;;1.40;;
52708;SDS011;38606;52.986;6.980;2023-08-06T12:27:37;1.52;;;1.10;;
52708;SDS011;38606;52.986;6.980;2023-08-06T12:30:05;1.20;;;1.10;;
52708;SDS011;38606;52.986;6.980;2023-08-06T12:32:31;1.90;;;1.20;;
52708;SDS011;38606;52.986;6.980;2023-08-06T12:34:58;3.15;;;1.20;;
52708;SDS011;38606;52.986;6.980;2023-08-06T12:37:24;1.83;;;1.38;;
52708;SDS011;38606;52.986;6.980;2023-08-06T12:39:50;2.58;;;1.20;;
52708;SDS011;38606;52.986;6.980;2023-08-06T12:42:16;1.23;;;1.13;;
52708;SDS011;38606;52.986;6.980;2023-08-06T12:44:41;1.33;;;1.23;;
52708;SDS011;38606;52.986;6.980;2023-08-06T12:47:07;2.00;;;1.60;;
52708;SDS011;38606;52.986;6.980;2023-08-06T12:49:33;2.63;;;1.58;;
52708;SDS011;38606;52.986;6.980;2023-08-06T12:51:59;3.20;;;1.40;;
52708;SDS011;38606;52.986;6.980;2023-08-06T12:54:25;2.45;;;1.38;;
52708;SDS011;38606;52.986;6.980;2023-08-06T12:56:51;2.63;;;1.20;;
52708;SDS011;38606;52.986;6.980;2023-08-06T12:59:17;2.05;;;1.40;;
52708;SDS011;38606;52.986;6.980;2023-08-06T13:01:43;1.40;;;1.20;;
52708;SDS011;38606;52.986;6.980;2023-08-06T13:04:10;1.58;;;1.23;;
52708;SDS011;38606;52.986;6.980;2023-08-06T13:06:36;2.50;;;1.33;;
52708;SDS011;38606;52.986;6.980;2023-08-06T13:09:04;1.92;;;1.42;;
52708;SDS011;38606;52.986;6.980;2023-08-06T13:11:30;3.38;;;1.60;;
52708;SDS011;38606;52.986;6.980;2023-08-06T13:13:59;3.55;;;1.65;;
52708;SDS011;38606;52.986;6.980;2023-08-06T13:16:29;1.33;;;1.23;;
52708;SDS011;38606;52.986;6.980;2023-08-06T13:18:54;1.40;;;1.30;;
52708;SDS011;38606;52.986;6.980;2023-08-06T13:21:20;1.83;;;1.40;;
52708;SDS011;38606;52.986;6.980;2023-08-06T13:23:46;3.70;;;1.48;;
52708;SDS011;38606;52.986;6.980;2023-08-06T13:26:13;1.85;;;1.23;;
52708;SDS011;38606;52.986;6.980;2023-08-06T13:28:38;1.70;;;1.20;;
52708;SDS011;38606;52.986;6.980;2023-08-06T13:31:04;1.67;;;1.50;;
52708;SDS011;38606;52.986;6.980;2023-08-06T13:33:30;2.95;;;1.10;;
52708;SDS011;38606;52.986;6.980;2023-08-06T13:35:55;1.48;;;1.05;;
52708;SDS011;38606;52.986;6.980;2023-08-06T13:38:21;1.63;;;1.33;;
52708;SDS011;38606;52.986;6.980;2023-08-06T13:40:47;1.58;;;1.27;;
52708;SDS011;38606;52.986;6.980;2023-08-06T13:43:13;1.50;;;1.40;;
52708;SDS011;38606;52.986;6.980;2023-08-06T13:45:41;3.25;;;1.40;;
52708;SDS011;38606;52.986;6.980;2023-08-06T13:48:06;2.15;;;1.40;;
52708;SDS011;38606;52.986;6.980;2023-08-06T13:50:32;4.43;;;1.40;;
52708;SDS011;38606;52.986;6.980;2023-08-06T13:52:58;1.60;;;1.38;;
52708;SDS011;38606;52.986;6.980;2023-08-06T13:55:23;2.65;;;1.50;;
52708;SDS011;38606;52.986;6.980;2023-08-06T13:57:49;2.17;;;1.60;;
52708;SDS011;38606;52.986;6.980;2023-08-06T14:00:16;1.65;;;1.40;;
52708;SDS011;38606;52.986;6.980;2023-08-06T14:02:41;2.72;;;1.30;;
52708;SDS011;38606;52.986;6.980;2023-08-06T14:05:09;2.38;;;1.40;;
52708;SDS011;38606;52.986;6.980;2023-08-06T14:07:35;2.25;;;1.50;;
52708;SDS011;38606;52.986;6.980;2023-08-06T14:10:00;2.15;;;1.40;;
52708;SDS011;38606;52.986;6.980;2023-08-06T14:12:26;3.63;;;1.45;;
52708;SDS011;38606;52.986;6.980;2023-08-06T14:14:52;6.25;;;1.52;;
52708;SDS011;38606;52.986;6.980;2023-08-06T14:17:17;2.30;;;1.50;;
52708;SDS011;38606;52.986;6.980;2023-08-06T14:19:43;2.35;;;1.45;;
52708;SDS011;38606;52.986;6.980;2023-08-06T14:22:09;2.95;;;1.67;;
52708;SDS011;38606;52.986;6.980;2023-08-06T14:24:34;1.90;;;1.45;;
52708;SDS011;38606;52.986;6.980;2023-08-06T14:27:00;2.53;;;1.25;;
52708;SDS011;38606;52.986;6.980;2023-08-06T14:29:26;3.67;;;1.60;;
52708;SDS011;38606;52.986;6.980;2023-08-06T14:31:51;1.55;;;1.45;;
52708;SDS011;38606;52.986;6.980;2023-08-06T14:34:17;1.60;;;1.50;;
52708;SDS011;38606;52.986;6.980;2023-08-06T14:36:43;2.75;;;1.55;;
52708;SDS011;38606;52.986;6.980;2023-08-06T14:39:08;2.13;;;1.63;;
52708;SDS011;38606;52.986;6.980;2023-08-06T14:41:34;2.28;;;1.40;;
52708;SDS011;38606;52.986;6.980;2023-08-06T14:44:00;2.05;;;1.23;;
52708;SDS011;38606;52.986;6.980;2023-08-06T14:46:25;2.38;;;1.35;;
52708;SDS011;38606;52.986;6.980;2023-08-06T14:48:51;1.80;;;1.30;;
52708;SDS011;38606;52.986;6.980;2023-08-06T14:51:16;5.72;;;1.60;;
52708;SDS011;38606;52.986;6.980;2023-08-06T14:53:44;2.13;;;1.30;;
52708;SDS011;38606;52.986;6.980;2023-08-06T14:56:10;1.77;;;1.20;;